sensor_id;sensor_type;location;lat;lon;timestamp;P1;durP1;ratioP1;P2;durP2;ratioP2
16994;SDS011;8614;48.522;9.206;2022-08-21T00:02:17;4.77;;;4.27;;
16994;SDS011;8614;48.522;9.206;2022-08-21T00:04:47;3.13;;;2.93;;
16994;SDS011;8614;48.522;9.206;2022-08-21T00:07:15;4.10;;;2.90;;
16994;SDS011;8614;48.522;9.206;2022-08-21T00:09:43;3.90;;;3.10;;
16994;SDS011;8614;48.522;9.206;2022-08-21T00:12:10;3.60;;;3.30;;
16994;SDS011;8614;48.522;9.206;2022-08-21T00:14:37;3.73;;;3.40;;
16994;SDS011;8614;48.522;9.206;2022-08-21T00:17:05;4.43;;;3.50;;
16994;SDS011;8614;48.522;9.206;2022-08-21T00:19:32;4.90;;;3.57;;
16994;SDS011;8614;48.522;9.206;2022-08-21T00:21:59;3.93;;;3.53;;
16994;SDS011;8614;48.522;9.206;2022-08-21T00:24:26;4.47;;;3.40;;
16994;SDS011;8614;48.522;9.206;2022-08-21T00:26:53;3.80;;;3.50;;
16994;SDS011;8614;48.522;9.206;2022-08-21T00:29:20;5.50;;;5.10;;
16994;SDS011;8614;48.522;9.206;2022-08-21T00:31:47;7.80;;;7.30;;
16994;SDS011;8614;48.522;9.206;2022-08-21T00:34:15;7.33;;;6.73;;
16994;SDS011;8614;48.522;9.206;2022-08-21T00:36:42;7.23;;;6.73;;
16994;SDS011;8614;48.522;9.206;2022-08-21T00:39:08;7.93;;;7.43;;
16994;SDS011;8614;48.522;9.206;2022-08-21T00:41:36;7.60;;;7.10;;
16994;SDS011;8614;48.522;9.206;2022-08-21T00:44:04;8.43;;;7.93;;
16994;SDS011;8614;48.522;9.206;2022-08-21T00:46:32;8.10;;;7.50;;
16994;SDS011;8614;48.522;9.206;2022-08-21T00:48:59;8.30;;;7.70;;
16994;SDS011;8614;48.522;9.206;2022-08-21T00:51:30;8.47;;;7.87;;
16994;SDS011;8614;48.522;9.206;2022-08-21T00:54:02;8.70;;;8.10;;
16994;SDS011;8614;48.522;9.206;2022-08-21T00:56:30;8.70;;;8.17;;
16994;SDS011;8614;48.522;9.206;2022-08-21T00:58:57;8.33;;;7.73;;
16994;SDS011;8614;48.522;9.206;2022-08-21T01:01:25;8.10;;;7.60;;
16994;SDS011;8614;48.522;9.206;2022-08-21T01:03:52;8.83;;;8.00;;
16994;SDS011;8614;48.522;9.206;2022-08-21T01:06:20;7.67;;;7.17;;
16994;SDS011;8614;48.522;9.206;2022-08-21T01:08:48;8.67;;;8.07;;
16994;SDS011;8614;48.522;9.206;2022-08-21T01:11:15;9.03;;;8.33;;
16994;SDS011;8614;48.522;9.206;2022-08-21T01:13:43;9.27;;;8.57;;
16994;SDS011;8614;48.522;9.206;2022-08-21T01:16:12;9.47;;;8.77;;
16994;SDS011;8614;48.522;9.206;2022-08-21T01:18:41;8.90;;;8.30;;
16994;SDS011;8614;48.522;9.206;2022-08-21T01:21:11;9.50;;;8.80;;
16994;SDS011;8614;48.522;9.206;2022-08-21T01:23:40;8.97;;;8.27;;
16994;SDS011;8614;48.522;9.206;2022-08-21T01:26:10;7.30;;;6.80;;
16994;SDS011;8614;48.522;9.206;2022-08-21T01:28:40;7.60;;;7.00;;
16994;SDS011;8614;48.522;9.206;2022-08-21T01:31:10;7.13;;;6.50;;
16994;SDS011;8614;48.522;9.206;2022-08-21T01:33:39;8.67;;;7.17;;
16994;SDS011;8614;48.522;9.206;2022-08-21T01:36:06;7.27;;;6.67;;
16994;SDS011;8614;48.522;9.206;2022-08-21T01:38:35;7.10;;;6.60;;
16994;SDS011;8614;48.522;9.206;2022-08-21T01:41:01;6.70;;;6.20;;
16994;SDS011;8614;48.522;9.206;2022-08-21T01:43:28;6.73;;;6.13;;
16994;SDS011;8614;48.522;9.206;2022-08-21T01:45:55;5.37;;;4.97;;
16994;SDS011;8614;48.522;9.206;2022-08-21T01:48:22;5.17;;;4.00;;
16994;SDS011;8614;48.522;9.206;2022-08-21T01:50:48;5.10;;;4.60;;
16994;SDS011;8614;48.522;9.206;2022-08-21T01:53:15;4.63;;;4.20;;
16994;SDS011;8614;48.522;9.206;2022-08-21T01:55:43;6.30;;;5.70;;
16994;SDS011;8614;48.522;9.206;2022-08-21T01:58:10;7.77;;;6.50;;
16994;SDS011;8614;48.522;9.206;2022-08-21T02:00:37;6.00;;;5.50;;
16994;SDS011;8614;48.522;9.206;2022-08-21T02:03:05;5.57;;;5.17;;
16994;SDS011;8614;48.522;9.206;2022-08-21T02:05:33;5.53;;;5.10;;
16994;SDS011;8614;48.522;9.206;2022-08-21T02:08:00;5.50;;;5.10;;
16994;SDS011;8614;48.522;9.206;2022-08-21T02:10:29;5.97;;;4.80;;
16994;SDS011;8614;48.522;9.206;2022-08-21T02:12:59;4.60;;;4.20;;
16994;SDS011;8614;48.522;9.206;2022-08-21T02:15:26;4.37;;;3.97;;
16994;SDS011;8614;48.522;9.206;2022-08-21T02:17:54;4.20;;;3.80;;
16994;SDS011;8614;48.522;9.206;2022-08-21T02:20:25;4.90;;;3.80;;
16994;SDS011;8614;48.522;9.206;2022-08-21T02:22:53;4.97;;;4.00;;
16994;SDS011;8614;48.522;9.206;2022-08-21T02:25:21;4.63;;;4.23;;
16994;SDS011;8614;48.522;9.206;2022-08-21T02:27:49;4.20;;;3.80;;
16994;SDS011;8614;48.522;9.206;2022-08-21T02:30:19;5.00;;;4.43;;
16994;SDS011;8614;48.522;9.206;2022-08-21T02:32:48;4.23;;;3.90;;
16994;SDS011;8614;48.522;9.206;2022-08-21T02:35:15;4.57;;;3.70;;
16994;SDS011;8614;48.522;9.206;2022-08-21T02:37:44;5.23;;;4.00;;
16994;SDS011;8614;48.522;9.206;2022-08-21T02:40:16;4.23;;;3.83;;
16994;SDS011;8614;48.522;9.206;2022-08-21T02:42:43;4.63;;;4.23;;
16994;SDS011;8614;48.522;9.206;2022-08-21T02:45:11;4.57;;;4.17;;
16994;SDS011;8614;48.522;9.206;2022-08-21T02:47:40;4.57;;;4.17;;
16994;SDS011;8614;48.522;9.206;2022-08-21T02:50:13;4.63;;;4.10;;
16994;SDS011;8614;48.522;9.206;2022-08-21T02:52:42;4.50;;;4.20;;
16994;SDS011;8614;48.522;9.206;2022-08-21T02:55:10;6.23;;;4.10;;
16994;SDS011;8614;48.522;9.206;2022-08-21T02:57:37;4.90;;;4.20;;
16994;SDS011;8614;48.522;9.206;2022-08-21T03:00:04;4.30;;;3.90;;
16994;SDS011;8614;48.522;9.206;2022-08-21T03:02:32;4.50;;;3.90;;
16994;SDS011;8614;48.522;9.206;2022-08-21T03:05:01;3.87;;;3.57;;
16994;SDS011;8614;48.522;9.206;2022-08-21T03:07:28;5.93;;;4.27;;
16994;SDS011;8614;48.522;9.206;2022-08-21T03:09:55;3.80;;;3.50;;
16994;SDS011;8614;48.522;9.206;2022-08-21T03:12:22;5.40;;;3.93;;
16994;SDS011;8614;48.522;9.206;2022-08-21T03:14:49;4.73;;;3.97;;
16994;SDS011;8614;48.522;9.206;2022-08-21T03:17:15;4.13;;;3.80;;
16994;SDS011;8614;48.522;9.206;2022-08-21T03:19:42;4.50;;;4.10;;
16994;SDS011;8614;48.522;9.206;2022-08-21T03:22:10;4.20;;;3.80;;
16994;SDS011;8614;48.522;9.206;2022-08-21T03:24:37;4.33;;;3.93;;
16994;SDS011;8614;48.522;9.206;2022-08-21T03:27:04;4.13;;;3.80;;
16994;SDS011;8614;48.522;9.206;2022-08-21T03:29:31;3.97;;;3.60;;
16994;SDS011;8614;48.522;9.206;2022-08-21T03:31:58;4.47;;;3.90;;
16994;SDS011;8614;48.522;9.206;2022-08-21T03:34:24;5.90;;;4.07;;
16994;SDS011;8614;48.522;9.206;2022-08-21T03:36:51;4.40;;;3.70;;
16994;SDS011;8614;48.522;9.206;2022-08-21T03:39:19;8.27;;;4.17;;
16994;SDS011;8614;48.522;9.206;2022-08-21T03:41:46;4.37;;;3.97;;
16994;SDS011;8614;48.522;9.206;2022-08-21T03:44:13;4.30;;;3.90;;
16994;SDS011;8614;48.522;9.206;2022-08-21T03:46:40;4.80;;;4.40;;
16994;SDS011;8614;48.522;9.206;2022-08-21T03:49:07;5.33;;;4.93;;
16994;SDS011;8614;48.522;9.206;2022-08-21T03:51:33;5.53;;;5.13;;
16994;SDS011;8614;48.522;9.206;2022-08-21T03:54:00;5.37;;;4.97;;
16994;SDS011;8614;48.522;9.206;2022-08-21T03:56:29;5.87;;;5.37;;
16994;SDS011;8614;48.522;9.206;2022-08-21T03:58:55;5.40;;;4.90;;
16994;SDS011;8614;48.522;9.206;2022-08-21T04:01:22;5.70;;;5.13;;
16994;SDS011;8614;48.522;9.206;2022-08-21T04:03:49;5.37;;;4.97;;
16994;SDS011;8614;48.522;9.206;2022-08-21T04:06:16;5.30;;;4.87;;
16994;SDS011;8614;48.522;9.206;2022-08-21T04:08:43;5.37;;;4.60;;
16994;SDS011;8614;48.522;9.206;2022-08-21T04:11:09;5.00;;;4.50;;
16994;SDS011;8614;48.522;9.206;2022-08-21T04:13:38;4.87;;;4.43;;
16994;SDS011;8614;48.522;9.206;2022-08-21T04:16:06;5.33;;;4.40;;
16994;SDS011;8614;48.522;9.206;2022-08-21T04:18:33;4.40;;;4.00;;
16994;SDS011;8614;48.522;9.206;2022-08-21T04:21:00;4.20;;;3.80;;
16994;SDS011;8614;48.522;9.206;2022-08-21T04:23:28;4.20;;;3.80;;
16994;SDS011;8614;48.522;9.206;2022-08-21T04:25:55;4.20;;;3.77;;
16994;SDS011;8614;48.522;9.206;2022-08-21T04:28:23;4.60;;;4.13;;
16994;SDS011;8614;48.522;9.206;2022-08-21T04:30:53;4.57;;;3.93;;
16994;SDS011;8614;48.522;9.206;2022-08-21T04:33:20;4.43;;;4.03;;
16994;SDS011;8614;48.522;9.206;2022-08-21T04:35:48;4.43;;;4.03;;
16994;SDS011;8614;48.522;9.206;2022-08-21T04:38:16;4.43;;;4.03;;
16994;SDS011;8614;48.522;9.206;2022-08-21T04:40:42;4.47;;;4.07;;
16994;SDS011;8614;48.522;9.206;2022-08-21T04:43:10;4.50;;;4.10;;
16994;SDS011;8614;48.522;9.206;2022-08-21T04:45:38;4.97;;;4.07;;
16994;SDS011;8614;48.522;9.206;2022-08-21T04:48:08;8.80;;;4.70;;
16994;SDS011;8614;48.522;9.206;2022-08-21T04:50:37;4.83;;;4.20;;
16994;SDS011;8614;48.522;9.206;2022-08-21T04:53:08;6.70;;;5.00;;
16994;SDS011;8614;48.522;9.206;2022-08-21T04:55:39;5.40;;;4.53;;
16994;SDS011;8614;48.522;9.206;2022-08-21T04:58:08;6.93;;;5.07;;
16994;SDS011;8614;48.522;9.206;2022-08-21T05:00:36;7.27;;;4.40;;
16994;SDS011;8614;48.522;9.206;2022-08-21T05:03:03;5.40;;;4.63;;
16994;SDS011;8614;48.522;9.206;2022-08-21T05:05:35;5.00;;;4.00;;
16994;SDS011;8614;48.522;9.206;2022-08-21T05:08:02;4.80;;;4.40;;
16994;SDS011;8614;48.522;9.206;2022-08-21T05:10:29;5.13;;;4.67;;
16994;SDS011;8614;48.522;9.206;2022-08-21T05:12:57;5.33;;;4.83;;
16994;SDS011;8614;48.522;9.206;2022-08-21T05:15:25;7.23;;;4.40;;
16994;SDS011;8614;48.522;9.206;2022-08-21T05:17:52;5.30;;;4.30;;
16994;SDS011;8614;48.522;9.206;2022-08-21T05:20:19;5.90;;;4.57;;
16994;SDS011;8614;48.522;9.206;2022-08-21T05:22:47;4.73;;;4.30;;
16994;SDS011;8614;48.522;9.206;2022-08-21T05:25:14;4.90;;;4.23;;
16994;SDS011;8614;48.522;9.206;2022-08-21T05:27:40;5.83;;;4.70;;
16994;SDS011;8614;48.522;9.206;2022-08-21T05:30:08;4.90;;;4.40;;
16994;SDS011;8614;48.522;9.206;2022-08-21T05:32:36;4.63;;;4.23;;
16994;SDS011;8614;48.522;9.206;2022-08-21T05:35:03;5.73;;;4.10;;
16994;SDS011;8614;48.522;9.206;2022-08-21T05:37:32;10.33;;;9.63;;
16994;SDS011;8614;48.522;9.206;2022-08-21T05:40:00;6.00;;;5.50;;
16994;SDS011;8614;48.522;9.206;2022-08-21T05:42:29;5.70;;;5.20;;
16994;SDS011;8614;48.522;9.206;2022-08-21T05:44:56;6.80;;;6.20;;
16994;SDS011;8614;48.522;9.206;2022-08-21T05:47:23;7.87;;;7.27;;
16994;SDS011;8614;48.522;9.206;2022-08-21T05:49:50;7.37;;;6.80;;
16994;SDS011;8614;48.522;9.206;2022-08-21T05:52:18;6.87;;;6.37;;
16994;SDS011;8614;48.522;9.206;2022-08-21T05:54:45;11.93;;;11.10;;
16994;SDS011;8614;48.522;9.206;2022-08-21T05:57:13;11.20;;;10.50;;
16994;SDS011;8614;48.522;9.206;2022-08-21T05:59:40;11.90;;;11.10;;
16994;SDS011;8614;48.522;9.206;2022-08-21T06:02:07;11.60;;;10.90;;
16994;SDS011;8614;48.522;9.206;2022-08-21T06:04:35;11.20;;;10.50;;
16994;SDS011;8614;48.522;9.206;2022-08-21T06:07:02;10.80;;;10.20;;
16994;SDS011;8614;48.522;9.206;2022-08-21T06:09:29;11.10;;;10.40;;
16994;SDS011;8614;48.522;9.206;2022-08-21T06:11:56;11.60;;;10.83;;
16994;SDS011;8614;48.522;9.206;2022-08-21T06:14:24;11.00;;;10.30;;
16994;SDS011;8614;48.522;9.206;2022-08-21T06:16:51;11.27;;;10.57;;
16994;SDS011;8614;48.522;9.206;2022-08-21T06:19:18;10.27;;;9.60;;
16994;SDS011;8614;48.522;9.206;2022-08-21T06:21:44;5.57;;;4.30;;
16994;SDS011;8614;48.522;9.206;2022-08-21T06:24:11;3.73;;;3.53;;
16994;SDS011;8614;48.522;9.206;2022-08-21T06:26:38;9.10;;;8.43;;
16994;SDS011;8614;48.522;9.206;2022-08-21T06:29:05;8.83;;;8.27;;
16994;SDS011;8614;48.522;9.206;2022-08-21T06:31:38;11.50;;;10.80;;
16994;SDS011;8614;48.522;9.206;2022-08-21T06:34:05;8.27;;;7.77;;
16994;SDS011;8614;48.522;9.206;2022-08-21T06:36:32;7.47;;;6.97;;
16994;SDS011;8614;48.522;9.206;2022-08-21T06:38:59;10.27;;;9.57;;
16994;SDS011;8614;48.522;9.206;2022-08-21T06:41:26;4.53;;;3.90;;
16994;SDS011;8614;48.522;9.206;2022-08-21T06:43:53;6.53;;;3.60;;
16994;SDS011;8614;48.522;9.206;2022-08-21T06:46:21;8.17;;;7.53;;
16994;SDS011;8614;48.522;9.206;2022-08-21T06:48:50;4.23;;;3.93;;
16994;SDS011;8614;48.522;9.206;2022-08-21T06:51:17;10.20;;;9.60;;
16994;SDS011;8614;48.522;9.206;2022-08-21T06:53:44;4.03;;;3.63;;
16994;SDS011;8614;48.522;9.206;2022-08-21T06:56:11;6.27;;;5.87;;
16994;SDS011;8614;48.522;9.206;2022-08-21T06:58:38;4.00;;;3.70;;
16994;SDS011;8614;48.522;9.206;2022-08-21T07:01:05;3.90;;;3.50;;
16994;SDS011;8614;48.522;9.206;2022-08-21T07:03:33;10.00;;;9.30;;
16994;SDS011;8614;48.522;9.206;2022-08-21T07:06:03;10.47;;;9.67;;
16994;SDS011;8614;48.522;9.206;2022-08-21T07:08:30;10.33;;;9.63;;
16994;SDS011;8614;48.522;9.206;2022-08-21T07:10:59;10.23;;;9.60;;
16994;SDS011;8614;48.522;9.206;2022-08-21T07:13:28;4.07;;;3.70;;
16994;SDS011;8614;48.522;9.206;2022-08-21T07:15:55;3.60;;;3.30;;
16994;SDS011;8614;48.522;9.206;2022-08-21T07:18:22;3.77;;;3.43;;
16994;SDS011;8614;48.522;9.206;2022-08-21T07:20:49;6.00;;;5.60;;
16994;SDS011;8614;48.522;9.206;2022-08-21T07:23:18;10.97;;;10.20;;
16994;SDS011;8614;48.522;9.206;2022-08-21T07:25:48;9.83;;;9.13;;
16994;SDS011;8614;48.522;9.206;2022-08-21T07:28:14;11.37;;;10.60;;
16994;SDS011;8614;48.522;9.206;2022-08-21T07:30:41;10.20;;;9.40;;
16994;SDS011;8614;48.522;9.206;2022-08-21T07:33:08;9.40;;;8.80;;
16994;SDS011;8614;48.522;9.206;2022-08-21T07:35:35;10.30;;;9.40;;
16994;SDS011;8614;48.522;9.206;2022-08-21T07:38:02;9.77;;;9.07;;
16994;SDS011;8614;48.522;9.206;2022-08-21T07:40:30;10.40;;;8.33;;
16994;SDS011;8614;48.522;9.206;2022-08-21T07:42:57;8.77;;;8.17;;
16994;SDS011;8614;48.522;9.206;2022-08-21T07:45:24;8.80;;;8.00;;
16994;SDS011;8614;48.522;9.206;2022-08-21T07:47:51;8.83;;;8.10;;
16994;SDS011;8614;48.522;9.206;2022-08-21T07:50:18;9.40;;;8.60;;
16994;SDS011;8614;48.522;9.206;2022-08-21T07:52:45;5.13;;;4.63;;
16994;SDS011;8614;48.522;9.206;2022-08-21T07:55:13;8.23;;;7.63;;
16994;SDS011;8614;48.522;9.206;2022-08-21T07:57:44;6.87;;;6.20;;
16994;SDS011;8614;48.522;9.206;2022-08-21T08:00:12;5.97;;;5.50;;
16994;SDS011;8614;48.522;9.206;2022-08-21T08:02:43;6.17;;;5.07;;
16994;SDS011;8614;48.522;9.206;2022-08-21T08:05:11;5.93;;;4.50;;
16994;SDS011;8614;48.522;9.206;2022-08-21T08:07:39;4.30;;;3.90;;
16994;SDS011;8614;48.522;9.206;2022-08-21T08:10:06;4.37;;;3.73;;
16994;SDS011;8614;48.522;9.206;2022-08-21T08:12:34;4.67;;;4.03;;
16994;SDS011;8614;48.522;9.206;2022-08-21T08:15:03;4.50;;;3.77;;
16994;SDS011;8614;48.522;9.206;2022-08-21T08:17:32;3.57;;;3.27;;
16994;SDS011;8614;48.522;9.206;2022-08-21T08:19:59;4.00;;;3.57;;
16994;SDS011;8614;48.522;9.206;2022-08-21T08:22:27;4.57;;;3.40;;
16994;SDS011;8614;48.522;9.206;2022-08-21T08:24:54;4.37;;;3.57;;
16994;SDS011;8614;48.522;9.206;2022-08-21T08:27:21;4.90;;;3.63;;
16994;SDS011;8614;48.522;9.206;2022-08-21T08:29:49;4.90;;;3.83;;
16994;SDS011;8614;48.522;9.206;2022-08-21T08:32:17;6.30;;;5.80;;
16994;SDS011;8614;48.522;9.206;2022-08-21T08:34:44;6.60;;;4.40;;
16994;SDS011;8614;48.522;9.206;2022-08-21T08:37:13;7.20;;;4.43;;
16994;SDS011;8614;48.522;9.206;2022-08-21T08:39:41;6.47;;;3.87;;
16994;SDS011;8614;48.522;9.206;2022-08-21T08:42:09;7.60;;;5.80;;
16994;SDS011;8614;48.522;9.206;2022-08-21T08:44:39;6.30;;;4.00;;
16994;SDS011;8614;48.522;9.206;2022-08-21T08:47:07;5.17;;;4.00;;
16994;SDS011;8614;48.522;9.206;2022-08-21T08:49:39;5.87;;;4.20;;
16994;SDS011;8614;48.522;9.206;2022-08-21T08:52:15;6.83;;;6.23;;
16994;SDS011;8614;48.522;9.206;2022-08-21T08:54:48;6.33;;;5.57;;
16994;SDS011;8614;48.522;9.206;2022-08-21T08:57:20;9.27;;;6.30;;
16994;SDS011;8614;48.522;9.206;2022-08-21T08:59:49;8.07;;;6.60;;
16994;SDS011;8614;48.522;9.206;2022-08-21T09:02:18;6.60;;;6.00;;
16994;SDS011;8614;48.522;9.206;2022-08-21T09:04:47;6.43;;;5.73;;
16994;SDS011;8614;48.522;9.206;2022-08-21T09:07:17;7.60;;;6.27;;
16994;SDS011;8614;48.522;9.206;2022-08-21T09:09:58;8.10;;;4.00;;
16994;SDS011;8614;48.522;9.206;2022-08-21T09:12:45;6.57;;;3.83;;
16994;SDS011;8614;48.522;9.206;2022-08-21T09:15:20;7.23;;;6.20;;
16994;SDS011;8614;48.522;9.206;2022-08-21T09:18:03;6.23;;;4.83;;
16994;SDS011;8614;48.522;9.206;2022-08-21T09:20:48;5.03;;;3.80;;
16994;SDS011;8614;48.522;9.206;2022-08-21T09:23:29;5.20;;;3.70;;
16994;SDS011;8614;48.522;9.206;2022-08-21T09:26:05;6.77;;;4.13;;
16994;SDS011;8614;48.522;9.206;2022-08-21T09:28:37;4.53;;;3.67;;
16994;SDS011;8614;48.522;9.206;2022-08-21T09:31:06;4.73;;;3.60;;
16994;SDS011;8614;48.522;9.206;2022-08-21T09:33:37;6.57;;;4.90;;
16994;SDS011;8614;48.522;9.206;2022-08-21T09:36:05;6.67;;;4.37;;
16994;SDS011;8614;48.522;9.206;2022-08-21T09:38:34;4.90;;;4.40;;
16994;SDS011;8614;48.522;9.206;2022-08-21T09:41:04;8.37;;;5.17;;
16994;SDS011;8614;48.522;9.206;2022-08-21T09:43:33;5.83;;;4.47;;
16994;SDS011;8614;48.522;9.206;2022-08-21T09:46:02;8.00;;;7.27;;
16994;SDS011;8614;48.522;9.206;2022-08-21T09:48:42;5.97;;;4.63;;
16994;SDS011;8614;48.522;9.206;2022-08-21T09:51:14;5.33;;;4.63;;
16994;SDS011;8614;48.522;9.206;2022-08-21T09:53:44;6.90;;;5.87;;
16994;SDS011;8614;48.522;9.206;2022-08-21T09:56:18;7.43;;;4.40;;
16994;SDS011;8614;48.522;9.206;2022-08-21T09:59:12;7.10;;;4.33;;
16994;SDS011;8614;48.522;9.206;2022-08-21T10:01:42;8.23;;;7.50;;
16994;SDS011;8614;48.522;9.206;2022-08-21T10:04:10;5.87;;;5.20;;
16994;SDS011;8614;48.522;9.206;2022-08-21T10:06:39;8.40;;;7.43;;
16994;SDS011;8614;48.522;9.206;2022-08-21T10:09:07;8.70;;;7.50;;
16994;SDS011;8614;48.522;9.206;2022-08-21T10:11:36;9.20;;;8.23;;
16994;SDS011;8614;48.522;9.206;2022-08-21T10:14:07;7.40;;;6.70;;
16994;SDS011;8614;48.522;9.206;2022-08-21T10:16:42;6.50;;;5.90;;
16994;SDS011;8614;48.522;9.206;2022-08-21T10:19:20;6.20;;;5.20;;
16994;SDS011;8614;48.522;9.206;2022-08-21T10:21:58;8.07;;;5.17;;
16994;SDS011;8614;48.522;9.206;2022-08-21T10:24:29;5.67;;;4.27;;
16994;SDS011;8614;48.522;9.206;2022-08-21T10:27:03;4.70;;;3.40;;
16994;SDS011;8614;48.522;9.206;2022-08-21T10:29:41;5.73;;;3.73;;
16994;SDS011;8614;48.522;9.206;2022-08-21T10:32:16;5.90;;;4.10;;
16994;SDS011;8614;48.522;9.206;2022-08-21T10:35:07;7.00;;;4.40;;
16994;SDS011;8614;48.522;9.206;2022-08-21T10:37:43;4.80;;;4.30;;
16994;SDS011;8614;48.522;9.206;2022-08-21T10:40:16;7.43;;;4.40;;
16994;SDS011;8614;48.522;9.206;2022-08-21T10:42:52;4.97;;;4.47;;
16994;SDS011;8614;48.522;9.206;2022-08-21T10:45:32;4.77;;;4.00;;
16994;SDS011;8614;48.522;9.206;2022-08-21T10:48:12;6.03;;;3.80;;
16994;SDS011;8614;48.522;9.206;2022-08-21T10:50:51;5.10;;;4.10;;
16994;SDS011;8614;48.522;9.206;2022-08-21T10:53:28;6.20;;;4.40;;
16994;SDS011;8614;48.522;9.206;2022-08-21T10:56:19;4.43;;;4.03;;
16994;SDS011;8614;48.522;9.206;2022-08-21T10:58:58;6.10;;;4.23;;
16994;SDS011;8614;48.522;9.206;2022-08-21T11:01:46;6.23;;;4.20;;
16994;SDS011;8614;48.522;9.206;2022-08-21T11:04:18;5.00;;;3.50;;
16994;SDS011;8614;48.522;9.206;2022-08-21T11:06:50;4.97;;;3.50;;
16994;SDS011;8614;48.522;9.206;2022-08-21T11:09:27;4.03;;;3.63;;
16994;SDS011;8614;48.522;9.206;2022-08-21T11:11:56;4.00;;;3.60;;
16994;SDS011;8614;48.522;9.206;2022-08-21T11:14:30;4.93;;;3.33;;
16994;SDS011;8614;48.522;9.206;2022-08-21T11:17:05;3.57;;;3.00;;
16994;SDS011;8614;48.522;9.206;2022-08-21T11:19:36;3.97;;;3.57;;
16994;SDS011;8614;48.522;9.206;2022-08-21T11:22:11;5.60;;;3.03;;
16994;SDS011;8614;48.522;9.206;2022-08-21T11:24:44;5.27;;;3.47;;
16994;SDS011;8614;48.522;9.206;2022-08-21T11:27:17;4.47;;;3.60;;
16994;SDS011;8614;48.522;9.206;2022-08-21T11:29:50;5.97;;;3.73;;
16994;SDS011;8614;48.522;9.206;2022-08-21T11:32:27;3.63;;;3.30;;
16994;SDS011;8614;48.522;9.206;2022-08-21T11:35:08;3.93;;;3.60;;
16994;SDS011;8614;48.522;9.206;2022-08-21T11:37:44;4.33;;;3.93;;
16994;SDS011;8614;48.522;9.206;2022-08-21T11:40:25;5.67;;;4.07;;
16994;SDS011;8614;48.522;9.206;2022-08-21T11:43:06;4.30;;;3.90;;
16994;SDS011;8614;48.522;9.206;2022-08-21T11:45:39;5.00;;;4.50;;
16994;SDS011;8614;48.522;9.206;2022-08-21T11:48:14;5.30;;;4.90;;
16994;SDS011;8614;48.522;9.206;2022-08-21T11:50:57;5.47;;;5.07;;
16994;SDS011;8614;48.522;9.206;2022-08-21T11:53:28;6.07;;;5.47;;
16994;SDS011;8614;48.522;9.206;2022-08-21T11:56:02;5.47;;;5.07;;
16994;SDS011;8614;48.522;9.206;2022-08-21T11:58:36;7.03;;;5.07;;
16994;SDS011;8614;48.522;9.206;2022-08-21T12:01:06;4.90;;;4.20;;
16994;SDS011;8614;48.522;9.206;2022-08-21T12:03:36;5.37;;;4.70;;
16994;SDS011;8614;48.522;9.206;2022-08-21T12:06:06;4.80;;;4.33;;
16994;SDS011;8614;48.522;9.206;2022-08-21T12:08:35;4.80;;;4.10;;
16994;SDS011;8614;48.522;9.206;2022-08-21T12:11:05;6.57;;;4.70;;
16994;SDS011;8614;48.522;9.206;2022-08-21T12:13:35;5.13;;;4.67;;
16994;SDS011;8614;48.522;9.206;2022-08-21T12:16:07;5.33;;;4.83;;
16994;SDS011;8614;48.522;9.206;2022-08-21T12:18:36;6.67;;;5.30;;
16994;SDS011;8614;48.522;9.206;2022-08-21T12:21:05;4.90;;;4.50;;
16994;SDS011;8614;48.522;9.206;2022-08-21T12:23:46;5.67;;;5.07;;
16994;SDS011;8614;48.522;9.206;2022-08-21T12:26:25;5.63;;;4.60;;
16994;SDS011;8614;48.522;9.206;2022-08-21T12:31:52;7.27;;;5.00;;
16994;SDS011;8614;48.522;9.206;2022-08-21T12:34:22;7.63;;;5.10;;
16994;SDS011;8614;48.522;9.206;2022-08-21T12:36:55;6.20;;;4.93;;
16994;SDS011;8614;48.522;9.206;2022-08-21T12:39:25;5.77;;;4.67;;
16994;SDS011;8614;48.522;9.206;2022-08-21T12:41:57;5.37;;;4.87;;
16994;SDS011;8614;48.522;9.206;2022-08-21T12:44:28;5.73;;;4.80;;
16994;SDS011;8614;48.522;9.206;2022-08-21T12:47:02;5.23;;;4.73;;
16994;SDS011;8614;48.522;9.206;2022-08-21T12:49:33;4.90;;;4.40;;
16994;SDS011;8614;48.522;9.206;2022-08-21T12:52:06;6.00;;;5.40;;
16994;SDS011;8614;48.522;9.206;2022-08-21T12:54:39;5.80;;;5.30;;
16994;SDS011;8614;48.522;9.206;2022-08-21T12:57:17;6.43;;;4.93;;
16994;SDS011;8614;48.522;9.206;2022-08-21T12:59:50;5.87;;;5.27;;
16994;SDS011;8614;48.522;9.206;2022-08-21T13:02:20;5.47;;;4.97;;
16994;SDS011;8614;48.522;9.206;2022-08-21T13:04:50;4.43;;;4.03;;
16994;SDS011;8614;48.522;9.206;2022-08-21T13:07:22;3.83;;;3.50;;
16994;SDS011;8614;48.522;9.206;2022-08-21T13:09:53;5.10;;;3.47;;
16994;SDS011;8614;48.522;9.206;2022-08-21T13:12:24;3.87;;;3.20;;
16994;SDS011;8614;48.522;9.206;2022-08-21T13:14:55;3.80;;;3.10;;
16994;SDS011;8614;48.522;9.206;2022-08-21T13:17:25;4.53;;;3.00;;
16994;SDS011;8614;48.522;9.206;2022-08-21T13:19:56;3.90;;;3.07;;
16994;SDS011;8614;48.522;9.206;2022-08-21T13:22:25;4.83;;;3.13;;
16994;SDS011;8614;48.522;9.206;2022-08-21T13:24:53;4.80;;;3.40;;
16994;SDS011;8614;48.522;9.206;2022-08-21T13:27:22;3.37;;;3.07;;
16994;SDS011;8614;48.522;9.206;2022-08-21T13:30:02;4.47;;;3.40;;
16994;SDS011;8614;48.522;9.206;2022-08-21T13:32:32;4.17;;;3.13;;
16994;SDS011;8614;48.522;9.206;2022-08-21T13:37:51;6.43;;;4.80;;
16994;SDS011;8614;48.522;9.206;2022-08-21T13:40:26;4.40;;;4.00;;
16994;SDS011;8614;48.522;9.206;2022-08-21T13:42:55;5.80;;;5.00;;
16994;SDS011;8614;48.522;9.206;2022-08-21T13:45:24;5.30;;;4.80;;
16994;SDS011;8614;48.522;9.206;2022-08-21T13:47:52;4.53;;;4.23;;
16994;SDS011;8614;48.522;9.206;2022-08-21T13:50:21;5.37;;;4.73;;
16994;SDS011;8614;48.522;9.206;2022-08-21T13:52:57;5.60;;;5.10;;
16994;SDS011;8614;48.522;9.206;2022-08-21T13:55:34;4.90;;;4.40;;
16994;SDS011;8614;48.522;9.206;2022-08-21T13:58:04;4.40;;;4.00;;
16994;SDS011;8614;48.522;9.206;2022-08-21T14:00:34;5.17;;;4.67;;
16994;SDS011;8614;48.522;9.206;2022-08-21T14:03:09;4.77;;;4.37;;
16994;SDS011;8614;48.522;9.206;2022-08-21T14:05:43;4.70;;;4.23;;
16994;SDS011;8614;48.522;9.206;2022-08-21T14:08:13;4.90;;;4.40;;
16994;SDS011;8614;48.522;9.206;2022-08-21T14:10:49;5.17;;;4.13;;
16994;SDS011;8614;48.522;9.206;2022-08-21T14:13:26;4.90;;;4.10;;
16994;SDS011;8614;48.522;9.206;2022-08-21T14:16:00;4.17;;;3.87;;
16994;SDS011;8614;48.522;9.206;2022-08-21T14:18:28;4.20;;;3.80;;
16994;SDS011;8614;48.522;9.206;2022-08-21T14:21:03;4.70;;;4.30;;
16994;SDS011;8614;48.522;9.206;2022-08-21T14:23:31;4.03;;;3.73;;
16994;SDS011;8614;48.522;9.206;2022-08-21T14:25:58;4.80;;;4.40;;
16994;SDS011;8614;48.522;9.206;2022-08-21T14:28:29;4.43;;;4.03;;
16994;SDS011;8614;48.522;9.206;2022-08-21T14:30:58;5.43;;;4.60;;
16994;SDS011;8614;48.522;9.206;2022-08-21T14:33:38;6.03;;;4.10;;
16994;SDS011;8614;48.522;9.206;2022-08-21T14:36:05;4.33;;;3.93;;
16994;SDS011;8614;48.522;9.206;2022-08-21T14:38:34;5.43;;;4.50;;
16994;SDS011;8614;48.522;9.206;2022-08-21T14:41:03;4.90;;;4.50;;
16994;SDS011;8614;48.522;9.206;2022-08-21T14:43:37;4.57;;;4.17;;
16994;SDS011;8614;48.522;9.206;2022-08-21T14:46:04;4.73;;;4.33;;
16994;SDS011;8614;48.522;9.206;2022-08-21T14:48:31;4.40;;;4.10;;
16994;SDS011;8614;48.522;9.206;2022-08-21T14:50:57;4.17;;;3.87;;
16994;SDS011;8614;48.522;9.206;2022-08-21T14:53:24;5.77;;;4.50;;
16994;SDS011;8614;48.522;9.206;2022-08-21T14:55:51;4.50;;;4.10;;
16994;SDS011;8614;48.522;9.206;2022-08-21T14:58:33;4.63;;;4.23;;
16994;SDS011;8614;48.522;9.206;2022-08-21T15:01:03;5.23;;;4.50;;
16994;SDS011;8614;48.522;9.206;2022-08-21T15:03:32;9.17;;;4.37;;
16994;SDS011;8614;48.522;9.206;2022-08-21T15:05:59;4.53;;;4.13;;
16994;SDS011;8614;48.522;9.206;2022-08-21T15:08:26;4.67;;;4.17;;
16994;SDS011;8614;48.522;9.206;2022-08-21T15:10:53;5.40;;;4.40;;
16994;SDS011;8614;48.522;9.206;2022-08-21T15:13:21;4.93;;;4.43;;
16994;SDS011;8614;48.522;9.206;2022-08-21T15:15:49;6.30;;;4.50;;
16994;SDS011;8614;48.522;9.206;2022-08-21T15:18:19;6.27;;;4.60;;
16994;SDS011;8614;48.522;9.206;2022-08-21T15:20:46;4.57;;;4.17;;
16994;SDS011;8614;48.522;9.206;2022-08-21T15:23:13;4.20;;;3.80;;